Flight Track Log - Related Links

Times and Time Zones

All times are in EST time to prevent confusion due to time zone crossing. See the ELT218 flight status page for this flight to view local times or setup timezone preferences in your user account.

Time Position Orientation Groundspeed Altitude Reporting Facility
EST Latitude Longitude Course Direction KTS MPH feet Rate Location/Type
Thu 06:25:46 PM 41.4533 -90.6914 275° West 174 200 5,800  Level Chicago Center
Thu 06:26:48 PM 41.4575 -90.7686 274° West 174 200 7,400 1,548 Climbing Chicago Center
Thu 06:27:50 PM 41.4614 -90.8367 274° West 182 209 9,000 1,548 Climbing Chicago Center
Thu 06:28:52 PM 41.4628 -90.9008 272° West 176 203 10,600 1,403 Climbing Chicago Center
Thu 06:29:00 PM 41.4500 -90.9345 270° West  Level FlightAware Approximate
Thu 06:29:54 PM 41.4650 -90.9631 273° West 169 194 11,900  Level Chicago Center
Thu 06:30:00 PM 41.4667 -91.0004 270° West  Level FlightAware Approximate
Thu 06:30:55 PM 41.4686 -91.0328 274° West 185 213 11,900  Level Chicago Center
Thu 06:31:57 PM 41.4711 -91.1103 272° West 205 236 11,900  Level Chicago Center
Thu 06:32:59 PM 41.4728 -91.1886 272° West 209 241 11,900  Level Chicago Center
Thu 06:34:01 PM 41.4764 -91.2814 273° West 210 242 11,900 48 Level Chicago Center
Thu 06:35:03 PM 41.4792 -91.3500 273° West 209 241 12,000 49 Climbing Chicago Center
Thu 06:36:04 PM 41.4819 -91.4269 273° West 209 241 12,000  Level Chicago Center
Thu 06:37:06 PM 41.4853 -91.5181 273° West 206 237 12,000  Level Chicago Center
Thu 06:38:08 PM 41.4869 -91.5964 272° West 210 242 12,000  Level Chicago Center
Thu 06:39:10 PM 41.4897 -91.6742 273° West 211 243 12,000  Level Chicago Center
Thu 06:40:12 PM 41.4925 -91.7508 273° West 208 239 12,000  Level Chicago Center
Thu 06:41:14 PM 41.4950 -91.8272 273° West 208 239 12,000  Level Chicago Center
Thu 06:42:15 PM 41.4969 -91.9067 272° West 214 246 12,000  Level Chicago Center
Thu 06:43:17 PM 41.4989 -92.0050 272° West 220 253 12,000  Level Chicago Center
Thu 06:44:19 PM 41.5008 -92.0861 272° West 221 254 12,000  Level Chicago Center
Thu 06:45:21 PM 41.5036 -92.1675 273° West 222 255 12,000  Level Chicago Center
Thu 06:46:23 PM 41.5067 -92.2483 273° West 221 254 12,000  Level Chicago Center
Thu 06:47:24 PM 41.5089 -92.3306 272° West 222 255 12,000  Level Chicago Center
Thu 06:48:26 PM 41.5106 -92.4117 272° West 222 255 12,000  Level Chicago Center
Thu 06:49:28 PM 41.5114 -92.4942 271° West 223 257 12,000  Level Chicago Center
Thu 06:50:30 PM 41.5133 -92.5922 272° West 223 257 12,000  Level Chicago Center
Thu 06:51:02 PM 41.5150 -92.6314 273° West 221 254 12,000  Level Minneapolis Center
Thu 06:52:04 PM 41.5167 -92.7131 272° West 221 254 12,000  Level Minneapolis Center
Thu 06:53:07 PM 41.5183 -92.7939 272° West 221 254 12,000 -576 Level Minneapolis Center
Thu 06:54:09 PM 41.5206 -92.8961 272° West 225 259 10,800 -1,210 Descending Minneapolis Center
Thu 06:55:11 PM 41.5236 -92.9894 273° West 236 272 9,500 -1,239 Descending Minneapolis Center
Thu 06:55:41 PM 41.5306 -93.0286 283° West 241 277 8,900 -1,355 Descending Minneapolis Center
Thu 06:56:13 PM 41.5267 -93.0864 265° West 239 275 8,100 -1,279 Descending Minneapolis Center
Thu 06:56:42 PM 41.5344 -93.1203 287° West 245 282 7,600 -1,258 Descending Minneapolis Center
Thu 06:57:15 PM 41.5283 -93.1756 262° West 240 276 6,800 -1,364 Descending Minneapolis Center
Thu 06:57:48 PM 41.5297 -93.2147 273° West 244 281 6,100 -1,258 Descending Minneapolis Center
Thu 06:58:17 PM 41.5158 -93.2647 250° West 250 288 5,500 -1,180 Descending Minneapolis Center
Thu 06:58:49 PM 41.5167 -93.3039 272° West 251 289 4,900 -1,452 Descending Minneapolis Center
Thu 06:59:19 PM 41.5067 -93.3600 257° West 245 282 4,000 -1,500 Descending Minneapolis Center
Thu 06:59:57 PM 41.5078 -93.4039 272° West 230 265 3,200 -1,333 Descending Minneapolis Center
Thu 07:00:22 PM 41.4983 -93.4433 252° West 232 267 2,600 -610 Descending Minneapolis Center
Thu 07:00:56 PM 41.5006 -93.4817 274° West 207 238 2,600 -194 Level Minneapolis Center
Thu 07:01:24 PM 41.4967 -93.5231 263° West 204 235 2,400 -197 Descending Minneapolis Center
Thu 07:01:57 PM 41.5119 -93.5508 306° West 188 216 2,400 -286 Level Minneapolis Center
Thu 07:02:27 PM 41.5133 -93.5869 273° West 187 215 2,100 -716 Descending Minneapolis Center
Thu 07:03:04 PM 41.5169 -93.6089 282° West 123 142 1,600 -590 Descending Minneapolis Center
Thu 07:03:28 PM 41.5167 -93.6336 269° West 121 139 1,500 -488 Descending Minneapolis Center
Thu 07:04:30 PM 41.5336 -93.6561 315° West 90 104 900 -242 Descending Minneapolis Center
Thu 07:05:32 PM 41.5394 -93.6631 318° Northwest 39 45 1,000 48 Climbing Minneapolis Center
Thu 07:06:34 PM 41.5367 -93.6567 120° Southeast 22 25 1,000  Level Minneapolis Center
Thu 07:07:36 PM 41.5406 -93.6544 23° Northeast 18 21 1,000  Level Minneapolis Center

Login

Don't have an account? Register now (free) for customized features, flight alerts, and more!